createdAt,value
2022-08-18T00:01:10.783Z,24.48
2022-08-18T00:03:54.132Z,24.41
2022-08-18T00:06:24.617Z,24.41
2022-08-18T00:08:55.876Z,24.38
2022-08-18T00:11:23.821Z,24.50
2022-08-18T00:13:50.556Z,24.52
2022-08-18T00:16:17.232Z,24.51
2022-08-18T00:18:44.041Z,24.45
2022-08-18T00:21:10.720Z,24.53
2022-08-18T00:23:38.787Z,24.58
2022-08-18T00:26:05.869Z,24.60
2022-08-18T00:28:32.535Z,24.50
2022-08-18T00:30:59.282Z,24.38
2022-08-18T00:33:26.419Z,24.36
2022-08-18T00:35:53.396Z,24.39
2022-08-18T00:38:24.755Z,24.53
2022-08-18T00:40:54.431Z,24.46
2022-08-18T00:43:46.086Z,24.49
2022-08-18T00:46:19.410Z,24.51
2022-08-18T00:48:48.429Z,24.44
2022-08-18T00:51:31.671Z,24.42
2022-08-18T00:54:03.900Z,24.41
2022-08-18T00:56:36.094Z,24.37
2022-08-18T00:59:17.187Z,24.38
2022-08-18T01:01:47.946Z,24.35
2022-08-18T01:04:18.672Z,24.35
2022-08-18T01:06:49.208Z,24.37
2022-08-18T01:09:17.910Z,24.46
2022-08-18T01:11:45.081Z,24.45
2022-08-18T01:14:15.931Z,24.49
2022-08-18T01:17:01.741Z,24.48
2022-08-18T01:19:47.421Z,24.49
2022-08-18T01:22:37.783Z,24.63
2022-08-18T01:25:26.370Z,24.56
2022-08-18T01:27:57.130Z,24.53
2022-08-18T01:30:28.233Z,24.52
2022-08-18T01:32:55.193Z,24.53
2022-08-18T01:35:23.806Z,24.23
2022-08-18T01:37:50.733Z,24.40
2022-08-18T01:41:01.090Z,24.47
2022-08-18T01:43:05.697Z,24.35
2022-08-18T01:45:33.548Z,24.39
2022-08-18T01:48:00.833Z,24.43
2022-08-18T01:50:28.031Z,24.48
2022-08-18T01:52:54.766Z,24.22
2022-08-18T01:55:21.889Z,24.01
2022-08-18T01:57:48.631Z,23.98
2022-08-18T02:00:18.036Z,24.03
2022-08-18T02:02:45.269Z,24.07
2022-08-18T02:05:18.343Z,24.24
2022-08-18T02:07:45.195Z,24.32
2022-08-18T02:10:16.280Z,24.43
2022-08-18T02:12:43.771Z,24.42
2022-08-18T02:15:10.938Z,24.46
2022-08-18T02:17:39.514Z,24.51
2022-08-18T02:20:08.186Z,24.38
2022-08-18T02:22:34.952Z,24.30
2022-08-18T02:25:01.692Z,24.33
2022-08-18T02:27:28.885Z,24.56
2022-08-18T02:29:55.606Z,24.57
2022-08-18T02:32:22.297Z,24.45
2022-08-18T02:34:51.097Z,24.59
2022-08-18T02:37:17.863Z,24.57
2022-08-18T02:39:44.923Z,24.60
2022-08-18T02:42:14.840Z,24.58
2022-08-18T02:44:41.804Z,24.66
2022-08-18T02:47:08.844Z,24.61
2022-08-18T02:49:36.880Z,24.56
2022-08-18T02:52:04.286Z,24.66
2022-08-18T02:54:31.267Z,24.67
2022-08-18T02:56:57.990Z,24.42
2022-08-18T02:59:27.535Z,24.38
2022-08-18T03:01:56.421Z,24.45
2022-08-18T03:04:29.630Z,24.58
2022-08-18T03:07:00.318Z,24.54
2022-08-18T03:09:27.780Z,24.55
2022-08-18T03:11:54.626Z,24.42
2022-08-18T03:14:21.811Z,24.51
2022-08-18T03:16:53.689Z,24.61
2022-08-18T03:19:26.556Z,24.69
2022-08-18T03:21:55.040Z,24.69
2022-08-18T03:24:26.627Z,24.76
2022-08-18T03:26:55.735Z,24.68
2022-08-18T03:29:26.536Z,24.77
2022-08-18T03:31:56.209Z,24.69
2022-08-18T03:34:22.866Z,24.76
2022-08-18T03:36:51.228Z,24.67
2022-08-18T03:39:19.174Z,24.71
2022-08-18T03:41:59.721Z,24.67
2022-08-18T03:44:30.903Z,24.62
2022-08-18T03:46:58.348Z,24.59
2022-08-18T03:49:26.843Z,24.54
2022-08-18T03:51:53.733Z,24.34
2022-08-18T03:54:20.510Z,24.37
2022-08-18T03:56:49.375Z,24.38
2022-08-18T03:59:23.584Z,24.26
2022-08-18T04:01:51.890Z,24.33
2022-08-18T04:04:22.629Z,24.41
2022-08-18T04:06:54.289Z,24.39
2022-08-18T04:09:23.066Z,24.17
2022-08-18T04:11:49.999Z,24.15
2022-08-18T04:14:18.963Z,24.19
2022-08-18T04:16:46.128Z,24.07
2022-08-18T04:19:13.825Z,24.15
2022-08-18T04:21:42.427Z,24.12
2022-08-18T04:24:11.498Z,23.95
2022-08-18T04:26:41.688Z,24.14
2022-08-18T04:29:09.531Z,24.19
2022-08-18T04:31:36.710Z,24.20
2022-08-18T04:34:03.882Z,24.16
2022-08-18T04:36:34.210Z,24.28
2022-08-18T04:39:01.343Z,24.19
2022-08-18T04:41:29.578Z,24.04
2022-08-18T04:44:03.173Z,24.19
2022-08-18T04:46:31.098Z,24.26
2022-08-18T04:49:00.996Z,24.06
2022-08-18T04:52:26.686Z,24.22
2022-08-18T04:54:16.315Z,24.27
2022-08-18T04:56:43.660Z,24.22
2022-08-18T04:59:12.549Z,24.31
2022-08-18T05:01:48.161Z,24.36
2022-08-18T05:04:16.797Z,24.25
2022-08-18T05:06:44.623Z,24.38
2022-08-18T05:09:16.806Z,24.26
2022-08-18T05:11:52.604Z,24.08
2022-08-18T05:14:20.145Z,24.04
2022-08-18T05:16:48.608Z,24.01
2022-08-18T05:19:23.302Z,24.14
2022-08-18T05:21:59.616Z,24.25
2022-08-18T05:24:32.207Z,24.24
2022-08-18T05:27:04.194Z,24.34
2022-08-18T05:29:36.719Z,24.36
2022-08-18T05:32:09.423Z,24.37
2022-08-18T05:34:36.215Z,24.31
2022-08-18T05:37:35.600Z,24.43
2022-08-18T05:40:10.825Z,24.26
2022-08-18T05:42:39.506Z,24.38
2022-08-18T05:45:13.609Z,24.36
2022-08-18T05:47:40.338Z,24.43
2022-08-18T05:50:17.303Z,24.36
2022-08-18T05:52:51.000Z,24.33
2022-08-18T05:55:58.240Z,24.32
2022-08-18T05:58:33.219Z,24.31
2022-08-18T06:01:32.075Z,24.21
2022-08-18T06:04:06.737Z,24.07
2022-08-18T06:06:34.151Z,23.83
2022-08-18T06:09:18.187Z,23.66
2022-08-18T06:11:45.681Z,24.01
2022-08-18T06:14:13.546Z,24.17
2022-08-18T06:16:40.146Z,24.03
2022-08-18T06:19:16.041Z,24.29
2022-08-18T06:22:01.325Z,24.41
2022-08-18T06:24:46.875Z,24.18
2022-08-18T06:27:26.098Z,24.26
2022-08-18T06:30:13.085Z,24.23
2022-08-18T06:33:02.387Z,24.22
2022-08-18T06:35:48.496Z,24.32
2022-08-18T06:38:36.694Z,24.47
2022-08-18T06:41:41.721Z,24.43
2022-08-18T06:44:48.948Z,24.50
2022-08-18T06:47:28.727Z,24.28
2022-08-18T06:50:21.664Z,24.47
2022-08-18T06:53:07.964Z,24.53
2022-08-18T06:55:54.604Z,24.36
2022-08-18T06:58:30.640Z,24.54
2022-08-18T07:01:05.506Z,24.55
2022-08-18T07:03:46.699Z,24.34
2022-08-18T07:06:21.295Z,24.62
2022-08-18T07:08:53.786Z,24.67
2022-08-18T07:11:28.137Z,24.74
2022-08-18T07:14:14.941Z,24.61
2022-08-18T07:16:59.551Z,24.28
2022-08-18T07:19:30.065Z,24.83
2022-08-18T07:22:17.019Z,24.78
2022-08-18T07:24:46.538Z,25.07
2022-08-18T07:27:19.729Z,25.12
2022-08-18T07:30:06.074Z,25.06
2022-08-18T07:32:43.082Z,25.01
2022-08-18T07:35:13.633Z,24.75
2022-08-18T07:37:47.544Z,24.82
2022-08-18T07:40:24.328Z,25.16
2022-08-18T07:43:01.093Z,25.79
2022-08-18T07:45:44.837Z,26.13
2022-08-18T07:48:39.921Z,26.71
2022-08-18T07:51:09.791Z,26.47
2022-08-18T07:53:56.312Z,26.19
2022-08-18T07:56:32.890Z,26.39
2022-08-18T07:59:20.416Z,26.35
2022-08-18T08:02:11.426Z,26.63
2022-08-18T08:05:05.005Z,26.77
2022-08-18T08:07:55.536Z,26.66
2022-08-18T08:10:25.681Z,26.32
2022-08-18T08:13:36.956Z,26.16
2022-08-18T08:16:05.368Z,26.19
2022-08-18T08:18:44.346Z,26.50
2022-08-18T08:21:15.585Z,26.75
2022-08-18T08:23:57.511Z,26.67
2022-08-18T08:26:32.314Z,26.67
2022-08-18T08:29:06.892Z,26.93
2022-08-18T08:31:45.995Z,26.81
2022-08-18T08:34:18.858Z,26.67
2022-08-18T08:36:48.008Z,26.75
2022-08-18T08:39:40.785Z,27.24
2022-08-18T08:42:30.658Z,26.95
2022-08-18T08:45:07.432Z,26.45
2022-08-18T08:47:43.224Z,27.41
2022-08-18T08:50:19.995Z,27.24
2022-08-18T08:52:56.728Z,27.45
2022-08-18T08:55:27.491Z,27.39
2022-08-18T08:58:01.258Z,27.80
2022-08-18T09:00:28.538Z,27.70
2022-08-18T09:03:06.945Z,27.92
2022-08-18T09:05:45.190Z,27.62
2022-08-18T09:08:24.098Z,28.24
2022-08-18T09:11:32.705Z,28.06
2022-08-18T09:14:14.373Z,27.60
2022-08-18T09:17:04.653Z,27.89
2022-08-18T09:19:52.268Z,27.73
2022-08-18T09:22:25.065Z,28.01
2022-08-18T09:24:55.023Z,27.63
2022-08-18T09:27:48.462Z,27.71
2022-08-18T09:30:55.158Z,27.17
2022-08-18T09:33:40.681Z,27.96
2022-08-18T09:36:49.522Z,27.30
2022-08-18T09:39:54.374Z,28.06
2022-08-18T09:42:48.329Z,27.98
2022-08-18T09:45:34.305Z,28.10
2022-08-18T09:48:20.699Z,28.58
2022-08-18T09:54:09.920Z,28.25
2022-08-18T09:56:55.734Z,28.50
2022-08-18T09:59:35.420Z,28.02
2022-08-18T10:02:20.050Z,27.78
2022-08-18T10:05:20.902Z,27.22
2022-08-18T10:07:50.420Z,27.54
2022-08-18T10:11:09.270Z,27.56
2022-08-18T10:13:49.744Z,28.02
2022-08-18T10:19:39.592Z,28.43
2022-08-18T10:22:09.372Z,28.23
2022-08-18T10:24:53.293Z,28.35
2022-08-18T10:27:41.991Z,28.60
2022-08-18T10:30:36.486Z,28.38
2022-08-18T10:34:00.819Z,28.39
2022-08-18T10:36:36.177Z,28.31
2022-08-18T10:39:07.890Z,28.47
2022-08-18T10:41:37.452Z,28.40
2022-08-18T10:44:27.636Z,28.35
2022-08-18T10:46:56.397Z,28.01
2022-08-18T10:49:26.238Z,28.43
2022-08-18T10:52:28.219Z,28.41
2022-08-18T10:55:56.538Z,28.43
2022-08-18T10:58:41.748Z,27.91
2022-08-18T11:02:02.537Z,28.66
2022-08-18T11:04:41.690Z,28.29
2022-08-18T11:10:57.712Z,28.50
2022-08-18T11:13:12.605Z,28.65
2022-08-18T11:16:15.485Z,28.69
2022-08-18T11:21:42.547Z,28.69
2022-08-18T11:24:11.875Z,28.59
2022-08-18T11:26:52.392Z,28.75
2022-08-18T11:29:36.551Z,28.74
2022-08-18T11:32:06.075Z,28.77
2022-08-18T11:34:45.533Z,28.81
2022-08-18T11:37:49.468Z,28.56
2022-08-18T11:41:02.356Z,28.02
2022-08-18T11:43:24.883Z,28.00
2022-08-18T11:45:59.230Z,28.42
2022-08-18T11:48:39.035Z,28.45
2022-08-18T11:51:17.481Z,28.49
2022-08-18T11:54:23.198Z,28.20
2022-08-18T11:56:50.432Z,28.59
2022-08-18T11:59:53.287Z,28.13
2022-08-18T12:02:20.668Z,28.62
2022-08-18T12:04:54.454Z,28.94
2022-08-18T12:07:57.899Z,28.83
2022-08-18T12:10:30.772Z,29.04
2022-08-18T12:13:01.424Z,29.34
2022-08-18T12:15:46.295Z,29.13
2022-08-18T12:18:26.181Z,29.11
2022-08-18T12:20:59.453Z,29.13
2022-08-18T12:23:38.527Z,29.02
2022-08-18T12:26:06.382Z,28.78
2022-08-18T12:28:53.199Z,28.85
2022-08-18T12:31:20.212Z,28.75
2022-08-18T12:34:00.081Z,28.72
2022-08-18T12:36:29.881Z,28.49
2022-08-18T12:38:57.258Z,28.27
2022-08-18T12:41:24.653Z,28.87
2022-08-18T12:43:58.783Z,29.16
2022-08-18T12:46:26.384Z,29.02
2022-08-18T12:48:53.674Z,29.35
2022-08-18T12:54:10.533Z,29.08
2022-08-18T12:56:40.394Z,29.09
2022-08-18T12:59:08.265Z,28.63
2022-08-18T13:01:36.744Z,28.93
2022-08-18T13:06:59.919Z,28.71
2022-08-18T13:09:35.305Z,29.30
2022-08-18T13:12:17.608Z,29.46
2022-08-18T13:14:45.369Z,29.58
2022-08-18T13:17:29.627Z,29.48
2022-08-18T13:20:09.583Z,28.70
2022-08-18T13:22:40.279Z,29.03
2022-08-18T13:25:10.626Z,29.42
2022-08-18T13:27:38.345Z,29.31
2022-08-18T13:30:30.131Z,29.18
2022-08-18T13:33:02.746Z,28.86
2022-08-18T13:35:38.122Z,28.90
2022-08-18T13:38:18.832Z,29.14
2022-08-18T13:40:53.151Z,29.21
2022-08-18T13:43:26.055Z,29.06
2022-08-18T13:45:56.056Z,28.88
2022-08-18T13:48:25.865Z,28.76
2022-08-18T13:50:58.432Z,28.93
2022-08-18T13:53:31.714Z,29.24
2022-08-18T13:55:59.285Z,29.27
2022-08-18T13:58:28.104Z,29.01
2022-08-18T14:01:42.419Z,29.27
2022-08-18T14:03:55.534Z,28.83
2022-08-18T14:06:23.926Z,28.99
2022-08-18T14:08:52.584Z,29.14
2022-08-18T14:11:23.778Z,29.22
2022-08-18T14:13:53.086Z,29.01
2022-08-18T14:16:21.169Z,29.03
2022-08-18T14:19:10.135Z,29.27
2022-08-18T14:22:01.407Z,29.20
2022-08-18T14:24:49.759Z,29.10
2022-08-18T14:27:24.508Z,29.24
2022-08-18T14:29:55.219Z,29.08
2022-08-18T14:32:29.419Z,28.81
2022-08-18T14:35:00.753Z,29.40
2022-08-18T14:37:46.154Z,29.19
2022-08-18T14:40:16.463Z,29.36
2022-08-18T14:42:54.841Z,29.25
2022-08-18T14:45:31.706Z,29.31
2022-08-18T14:48:07.454Z,29.31
2022-08-18T14:50:38.163Z,29.30
2022-08-18T14:53:06.290Z,29.32
2022-08-18T14:55:34.164Z,29.35
2022-08-18T14:58:01.349Z,29.42
2022-08-18T15:00:30.198Z,28.33
2022-08-18T15:02:59.443Z,29.25
2022-08-18T15:05:27.593Z,29.22
2022-08-18T15:07:56.297Z,29.41
2022-08-18T15:10:28.007Z,29.69
2022-08-18T15:12:57.782Z,29.69
2022-08-18T15:15:25.613Z,29.67
2022-08-18T15:17:53.313Z,29.31
2022-08-18T15:20:23.835Z,29.60
2022-08-18T15:23:09.229Z,29.82
2022-08-18T15:25:46.393Z,29.39
2022-08-18T15:28:23.746Z,29.82
2022-08-18T15:31:16.507Z,29.15
2022-08-18T15:33:39.620Z,29.72
2022-08-18T15:36:09.782Z,29.88
2022-08-18T15:38:37.178Z,29.59
2022-08-18T15:41:09.266Z,29.75
2022-08-18T15:43:46.019Z,29.64
2022-08-18T15:46:16.749Z,29.75
2022-08-18T15:48:44.012Z,29.92
2022-08-18T15:51:12.167Z,29.75
2022-08-18T15:53:40.077Z,29.94
2022-08-18T15:56:16.435Z,29.90
2022-08-18T15:58:48.696Z,30.05
2022-08-18T16:01:30.570Z,30.05
2022-08-18T16:04:05.578Z,30.00
2022-08-18T16:06:33.380Z,30.16
2022-08-18T16:09:03.818Z,30.03
2022-08-18T16:11:30.965Z,29.81
2022-08-18T16:14:01.080Z,29.93
2022-08-18T16:16:29.633Z,29.98
2022-08-18T16:19:06.861Z,29.92
2022-08-18T16:21:34.083Z,29.90
2022-08-18T16:24:00.784Z,29.84
2022-08-18T16:26:27.702Z,29.89
2022-08-18T16:28:54.434Z,29.64
2022-08-18T16:31:26.617Z,29.73
2022-08-18T16:33:55.289Z,29.88
2022-08-18T16:36:25.760Z,29.85
2022-08-18T16:38:53.981Z,29.92
2022-08-18T16:41:26.861Z,29.85
2022-08-18T16:43:53.639Z,29.93
2022-08-18T16:46:25.280Z,29.57
2022-08-18T16:48:53.457Z,29.67
2022-08-18T16:51:22.038Z,29.42
2022-08-18T16:53:52.195Z,29.35
2022-08-18T16:56:22.869Z,29.49
2022-08-18T16:59:08.154Z,29.36
2022-08-18T17:01:54.352Z,29.53
2022-08-18T17:04:24.049Z,29.49
2022-08-18T17:06:51.051Z,29.64
2022-08-18T17:09:19.396Z,29.67
2022-08-18T17:11:48.105Z,28.80
2022-08-18T17:14:23.777Z,29.35
2022-08-18T17:16:54.487Z,29.48
2022-08-18T17:19:23.329Z,29.07
2022-08-18T17:21:50.541Z,28.96
2022-08-18T17:24:18.638Z,29.13
2022-08-18T17:27:12.001Z,29.39
2022-08-18T17:30:18.216Z,29.21
2022-08-18T17:32:49.965Z,29.50
2022-08-18T17:35:35.289Z,29.64
2022-08-18T17:38:18.831Z,29.36
2022-08-18T17:40:50.598Z,29.22
2022-08-18T17:43:20.143Z,28.95
2022-08-18T17:46:12.687Z,29.30
2022-08-18T17:49:03.414Z,29.22
2022-08-18T17:51:43.485Z,29.22
2022-08-18T17:54:23.604Z,29.11
2022-08-18T17:56:55.257Z,29.16
2022-08-18T17:59:45.807Z,29.09
2022-08-18T18:02:29.316Z,29.01
2022-08-18T18:04:59.693Z,29.14
2022-08-18T18:07:29.526Z,29.16
2022-08-18T18:10:01.506Z,29.07
2022-08-18T18:12:31.395Z,28.93
2022-08-18T18:15:00.498Z,29.02
2022-08-18T18:17:37.821Z,28.97
2022-08-18T18:20:29.726Z,28.91
2022-08-18T18:23:15.905Z,28.87
2022-08-18T18:25:43.467Z,28.83
2022-08-18T18:28:26.248Z,28.56
2022-08-18T18:30:54.098Z,28.40
2022-08-18T18:33:22.683Z,28.65
2022-08-18T18:35:59.226Z,28.48
2022-08-18T18:38:35.211Z,28.43
2022-08-18T18:41:06.960Z,28.43
2022-08-18T18:43:34.391Z,28.49
2022-08-18T18:46:23.075Z,28.45
2022-08-18T18:49:05.018Z,28.31
2022-08-18T18:51:43.840Z,28.29
2022-08-18T18:54:49.619Z,28.38
2022-08-18T18:57:40.058Z,28.32
2022-08-18T19:00:19.698Z,28.15
2022-08-18T19:03:16.906Z,28.17
2022-08-18T19:05:49.846Z,28.02
2022-08-18T19:08:22.062Z,28.05
2022-08-18T19:11:00.316Z,28.14
2022-08-18T19:13:35.141Z,28.15
2022-08-18T19:16:23.749Z,28.13
2022-08-18T19:18:59.798Z,27.86
2022-08-18T19:22:03.855Z,27.90
2022-08-18T19:24:30.044Z,27.87
2022-08-18T19:26:58.570Z,27.92
2022-08-18T19:29:36.359Z,27.93
2022-08-18T19:32:27.100Z,27.88
2022-08-18T19:34:55.800Z,27.95
2022-08-18T19:37:44.772Z,27.81
2022-08-18T19:40:19.844Z,27.78
2022-08-18T19:43:26.579Z,27.89
2022-08-18T19:46:00.528Z,27.93
2022-08-18T19:48:39.320Z,27.90
2022-08-18T19:51:16.187Z,27.87
2022-08-18T19:53:52.454Z,27.93
2022-08-18T19:57:03.515Z,27.93
2022-08-18T19:59:36.318Z,27.98
2022-08-18T20:02:25.341Z,27.86
2022-08-18T20:05:08.495Z,27.93
2022-08-18T20:08:05.046Z,27.73
2022-08-18T20:11:02.363Z,27.79
2022-08-18T20:13:36.715Z,27.79
2022-08-18T20:16:13.565Z,27.87
2022-08-18T20:18:42.753Z,27.67
2022-08-18T20:21:48.421Z,27.69
2022-08-18T20:24:30.735Z,27.82
2022-08-18T20:27:14.992Z,27.77
2022-08-18T20:29:43.656Z,27.72
2022-08-18T20:32:34.588Z,27.64
2022-08-18T20:35:24.860Z,27.47
2022-08-18T20:37:51.937Z,27.31
2022-08-18T20:40:45.122Z,27.43
2022-08-18T20:43:35.965Z,27.29
2022-08-18T20:46:26.687Z,27.48
2022-08-18T20:49:50.458Z,27.24
2022-08-18T20:52:48.970Z,27.44
2022-08-18T20:55:30.641Z,27.44
2022-08-18T20:58:05.514Z,27.38
2022-08-18T21:00:36.430Z,27.22
2022-08-18T21:03:08.734Z,27.25
2022-08-18T21:05:37.369Z,27.36
2022-08-18T21:08:13.644Z,27.17
2022-08-18T21:10:50.580Z,27.20
2022-08-18T21:13:31.510Z,27.14
2022-08-18T21:15:58.536Z,27.15
2022-08-18T21:18:26.920Z,27.19
2022-08-18T21:20:56.188Z,27.19
2022-08-18T21:23:30.631Z,27.20
2022-08-18T21:26:06.763Z,27.09
2022-08-18T21:28:36.699Z,27.13
2022-08-18T21:31:29.018Z,27.15
2022-08-18T21:34:16.021Z,27.07
2022-08-18T21:36:53.726Z,27.03
2022-08-18T21:39:21.110Z,26.93
2022-08-18T21:41:54.479Z,26.89
2022-08-18T21:44:41.868Z,26.97
2022-08-18T21:47:15.562Z,26.95
2022-08-18T21:50:17.997Z,26.91
2022-08-18T21:53:11.369Z,26.66
2022-08-18T21:55:42.796Z,26.77
2022-08-18T21:58:16.725Z,26.63
2022-08-18T22:01:06.107Z,26.78
2022-08-18T22:03:37.493Z,26.62
2022-08-18T22:06:13.164Z,26.82
2022-08-18T22:08:50.084Z,26.89
2022-08-18T22:12:00.661Z,26.86
2022-08-18T22:14:54.857Z,26.68
2022-08-18T22:17:25.567Z,26.75
2022-08-18T22:19:53.271Z,26.53
2022-08-18T22:22:40.557Z,26.51
2022-08-18T22:25:08.434Z,26.51
2022-08-18T22:27:35.509Z,26.59
2022-08-18T22:30:04.287Z,26.67
2022-08-18T22:32:38.165Z,26.74
2022-08-18T22:35:06.999Z,26.58
2022-08-18T22:37:40.284Z,26.58
2022-08-18T22:40:11.410Z,26.59
2022-08-18T22:42:39.000Z,26.58
2022-08-18T22:45:09.895Z,26.51
2022-08-18T22:47:43.157Z,26.54
2022-08-18T22:50:12.842Z,26.35
2022-08-18T22:52:43.534Z,26.39
2022-08-18T22:55:13.641Z,26.38
2022-08-18T22:57:42.068Z,26.29
2022-08-18T23:00:17.321Z,26.17
2022-08-18T23:02:45.088Z,26.15
2022-08-18T23:05:11.919Z,26.18
2022-08-18T23:07:38.821Z,26.06
2022-08-18T23:10:08.151Z,26.10
2022-08-18T23:12:40.392Z,25.94
2022-08-18T23:15:11.436Z,25.90
2022-08-18T23:17:39.486Z,26.06
2022-08-18T23:20:11.711Z,26.12
2022-08-18T23:22:40.098Z,25.96
2022-08-18T23:25:09.394Z,26.04
2022-08-18T23:27:36.677Z,26.11
2022-08-18T23:30:04.899Z,26.13
2022-08-18T23:32:32.031Z,26.15
2022-08-18T23:34:59.436Z,26.09
2022-08-18T23:37:26.545Z,25.96
2022-08-18T23:39:53.259Z,25.54
2022-08-18T23:42:23.005Z,25.49
2022-08-18T23:44:50.087Z,25.28
2022-08-18T23:47:19.560Z,25.36
2022-08-18T23:49:46.802Z,25.22
2022-08-18T23:52:13.470Z,24.77
2022-08-18T23:54:40.206Z,24.75
2022-08-18T23:57:06.920Z,24.61
2022-08-18T23:59:33.692Z,24.54
